Time;durP1;ratioP1;P1;durP2;ratioP2;P2;SDS_P1;SDS_P2;PMS_P1;PMS_P2;Temp;Humidity;BMP_temperature;BMP_pressure;BME280_temperature;BME280_humidity;BME280_pressure;Samples;Min_cycle;Max_cycle;Signal;HPM_P1;HPM_P2
2021/11/17 02:27:32;;;;;;;;;;;;;;;-1.43;53.81;101892.34;117388;1186;22977;-81
2021/11/17 02:30:03;;;;;;;;;;;;;;;-1.45;53.97;101893.44;117335;1185;21867;-80
2021/11/17 02:32:46;;;;;;;;;;;;;;;-1.47;53.97;101890.38;117465;1186;23284;-80
2021/11/17 02:35:16;;;;;;;;;;;;;;;-1.48;53.87;101885.81;117423;1183;22984;-81
2021/11/17 02:37:53;;;;;;;;;;;;;;;-1.51;53.87;101890.86;117399;1185;21855;-81
2021/11/17 02:40:36;;;;;;;;;;;;;;;-1.55;53.73;101884.23;117465;1185;21841;-81
2021/11/17 02:43:11;;;;;;;;;;;;;;;-1.59;53.93;101881.95;117419;1179;23515;-81
2021/11/17 02:45:42;;;;;;;;;;;;;;;-1.61;54.01;101887.64;117401;1186;22912;-81
2021/11/17 02:48:16;;;;;;;;;;;;;;;-1.63;53.85;101887.51;117382;1186;22142;-80
2021/11/17 02:51:02;;;;;;;;;;;;;;;-1.66;53.82;101881.86;117469;1186;23420;-81
2021/11/17 02:53:33;;;;;;;;;;;;;;;-1.66;53.87;101876.32;117424;1182;21857;-81
2021/11/17 02:56:08;;;;;;;;;;;;;;;-1.64;54.15;101873.89;117387;1186;22629;-80
2021/11/17 02:58:42;;;;;;;;;;;;;;;-1.61;54.13;101872.46;117476;1182;23644;-80
2021/11/17 03:01:10;;;;;;;;;;;;;;;-1.63;53.93;101876.34;117681;1182;21852;-80
2021/11/17 03:03:38;;;;;;;;;;;;;;;-1.65;53.97;101867.27;117531;1185;22921;-81
2021/11/17 03:06:19;;;;;;;;;;;;;;;-1.67;54.09;101864.54;117537;1179;23555;-80
2021/11/17 03:08:53;;;;;;;;;;;;;;;-1.69;53.79;101855.66;117590;1183;23606;-80
2021/11/17 03:11:37;;;;;;;;;;;;;;;-1.69;53.89;101852.70;118279;1185;21847;-81
2021/11/17 03:14:09;;;;;;;;;;;;;;;-1.72;53.97;101855.30;117523;1185;22168;-81
2021/11/17 03:16:56;;;;;;;;;;;;;;;-1.72;53.81;101849.95;117510;1185;21846;-81
2021/11/17 03:19:39;;;;;;;;;;;;;;;-1.76;53.90;101844.73;117424;1186;21864;-81
2021/11/17 03:22:14;;;;;;;;;;;;;;;-1.80;53.91;101843.28;117413;1183;21841;-80
2021/11/17 03:24:54;;;;;;;;;;;;;;;-1.83;54.03;101841.08;117525;1185;21892;-81
2021/11/17 03:27:37;;;;;;;;;;;;;;;-1.85;53.90;101835.58;117319;1182;21854;-80
2021/11/17 03:30:18;;;;;;;;;;;;;;;-1.86;54.07;101833.98;117516;1186;21842;-81
2021/11/17 03:32:56;;;;;;;;;;;;;;;-1.86;54.01;101831.21;117635;1186;21842;-81
2021/11/17 03:35:27;;;;;;;;;;;;;;;-1.87;53.97;101832.54;117518;1182;22921;-80
2021/11/17 03:38:14;;;;;;;;;;;;;;;-1.87;53.95;101833.23;117471;1186;23432;-80
2021/11/17 03:41:00;;;;;;;;;;;;;;;-1.90;54.02;101844.73;117531;1185;21843;-80
2021/11/17 03:43:34;;;;;;;;;;;;;;;-1.97;53.79;101844.31;117423;1183;22904;-80
2021/11/17 03:46:11;;;;;;;;;;;;;;;-2.08;53.71;101848.62;117473;1179;21944;-79
2021/11/17 03:48:42;;;;;;;;;;;;;;;-2.14;53.85;101842.38;117537;1185;21851;-80
2021/11/17 03:51:25;;;;;;;;;;;;;;;-2.15;53.89;101843.20;117296;1188;21841;-79
2021/11/17 03:54:11;;;;;;;;;;;;;;;-2.13;53.94;101837.98;117539;1186;22030;-80
2021/11/17 03:56:48;;;;;;;;;;;;;;;-2.11;54.00;101832.27;117419;1187;21843;-80
2021/11/17 03:59:17;;;;;;;;;;;;;;;-2.10;54.01;101831.33;117409;1186;21898;-80
2021/11/17 04:01:54;;;;;;;;;;;;;;;-2.10;53.91;101835.95;117418;1186;21853;-80
2021/11/17 04:04:41;;;;;;;;;;;;;;;-2.12;54.02;101835.65;117483;1187;21907;-80
2021/11/17 04:07:17;;;;;;;;;;;;;;;-2.15;53.95;101834.41;117406;1186;21844;-79
2021/11/17 04:09:57;;;;;;;;;;;;;;;-2.18;53.92;101832.15;117428;1186;24160;-80
2021/11/17 04:12:25;;;;;;;;;;;;;;;-2.19;53.86;101834.81;117413;1182;22800;-80
2021/11/17 04:14:54;;;;;;;;;;;;;;;-2.22;53.90;101833.33;117476;1185;23849;-80
2021/11/17 04:17:40;;;;;;;;;;;;;;;-2.23;53.85;101831.88;117408;1182;22632;-79
2021/11/17 04:20:20;;;;;;;;;;;;;;;-2.25;53.81;101827.46;117382;1185;22915;-80
2021/11/17 04:23:04;;;;;;;;;;;;;;;-2.26;54.01;101827.73;117543;1182;22909;-80
2021/11/17 04:25:38;;;;;;;;;;;;;;;-2.23;54.00;101830.68;117340;1188;21862;-80
2021/11/17 04:28:22;;;;;;;;;;;;;;;-2.22;54.08;101827.98;117507;1182;23624;-80
2021/11/17 04:30:50;;;;;;;;;;;;;;;-2.15;54.18;101826.17;117505;1185;21842;-80
2021/11/17 04:33:33;;;;;;;;;;;;;;;-2.05;54.32;101827.50;117508;1185;22594;-81
2021/11/17 04:36:20;;;;;;;;;;;;;;;-1.96;54.43;101817.23;117539;1185;23531;-80
2021/11/17 04:39:05;;;;;;;;;;;;;;;-1.90;54.27;101817.71;117592;1182;22272;-79
2021/11/17 04:42:02;;;;;;;;;;;;;;;-1.87;54.27;101822.89;117569;1182;21889;-79
2021/11/17 04:44:39;;;;;;;;;;;;;;;-1.86;54.20;101822.44;117043;1187;21854;-81
2021/11/17 04:47:16;;;;;;;;;;;;;;;-1.83;54.29;101817.63;117409;1182;22709;-80
2021/11/17 04:49:56;;;;;;;;;;;;;;;-1.75;54.33;101817.77;117567;1185;21842;-80
2021/11/17 04:52:44;;;;;;;;;;;;;;;-1.67;54.40;101814.28;117398;1182;21845;-80
2021/11/17 04:55:14;;;;;;;;;;;;;;;-1.59;54.33;101811.34;117430;1186;21851;-80
2021/11/17 04:58:01;;;;;;;;;;;;;;;-1.49;54.57;101812.80;117380;1183;21848;-81
2021/11/17 05:00:41;;;;;;;;;;;;;;;-1.38;54.49;101811.19;117779;1185;21858;-80
2021/11/17 05:03:25;;;;;;;;;;;;;;;-1.27;54.54;101804.56;117634;1186;22073;-81
2021/11/17 05:05:54;;;;;;;;;;;;;;;-1.18;54.54;101808.41;117455;1182;23535;-80
2021/11/17 05:08:34;;;;;;;;;;;;;;;-1.11;54.49;101806.92;117446;1186;21864;-80
2021/11/17 05:11:02;;;;;;;;;;;;;;;-1.02;54.71;101804.50;117574;1185;21863;-80
2021/11/17 05:13:39;;;;;;;;;;;;;;;-0.93;54.67;101802.63;117632;1179;21854;-80
2021/11/17 05:16:30;;;;;;;;;;;;;;;-0.86;54.73;101808.67;117588;1179;23417;-80
2021/11/17 05:19:13;;;;;;;;;;;;;;;-0.74;54.64;101809.19;117338;1181;21866;-80
2021/11/17 05:22:00;;;;;;;;;;;;;;;-0.63;54.76;101804.80;117619;1185;23653;-80
2021/11/17 05:24:28;;;;;;;;;;;;;;;-0.51;54.72;101811.38;117481;1186;21851;-80
2021/11/17 05:27:28;;;;;;;;;;;;;;;-0.38;54.88;101805.51;117490;1182;21880;-80
2021/11/17 05:30:22;;;;;;;;;;;;;;;-0.24;54.86;101807.82;117193;1189;21857;-82
2021/11/17 05:33:13;;;;;;;;;;;;;;;-0.08;54.75;101811.77;117139;1189;22922;-80
2021/11/17 05:35:41;;;;;;;;;;;;;;;0.05;54.61;101804.19;116962;1189;22925;-80
2021/11/17 05:38:27;;;;;;;;;;;;;;;0.07;54.52;101805.67;117140;1189;23547;-80
2021/11/17 05:40:55;;;;;;;;;;;;;;;0.08;54.60;101810.89;117083;1188;23933;-79
2021/11/17 05:43:35;;;;;;;;;;;;;;;0.08;54.50;101809.88;117133;1188;23422;-79
2021/11/17 05:46:12;;;;;;;;;;;;;;;0.10;54.65;101816.52;117141;1181;23584;-79
2021/11/17 05:48:46;;;;;;;;;;;;;;;0.13;54.59;101810.46;117130;1189;21859;-79
2021/11/17 05:51:33;;;;;;;;;;;;;;;0.15;54.84;101812.86;117178;1189;21915;-79
2021/11/17 05:54:04;;;;;;;;;;;;;;;0.20;54.63;101813.24;117183;1189;23550;-80
2021/11/17 05:56:32;;;;;;;;;;;;;;;0.26;54.75;101809.06;117148;1185;21849;-79
2021/11/17 05:59:39;;;;;;;;;;;;;;;0.34;54.83;101803.09;117162;1186;23515;-78
2021/11/17 06:02:21;;;;;;;;;;;;;;;0.44;54.82;101802.95;116727;1189;22737;-80
2021/11/17 06:04:49;;;;;;;;;;;;;;;0.56;54.82;101795.60;116708;1189;22919;-79
2021/11/17 06:07:18;;;;;;;;;;;;;;;0.65;55.11;101793.66;116966;1189;23550;-79
2021/11/17 06:09:46;;;;;;;;;;;;;;;0.75;55.17;101789.29;116953;1191;21870;-80
2021/11/17 06:12:14;;;;;;;;;;;;;;;0.81;55.13;101780.08;116997;1187;22264;-80
2021/11/17 06:14:47;;;;;;;;;;;;;;;0.88;54.91;101780.80;116983;1191;21860;-80
2021/11/17 06:17:23;;;;;;;;;;;;;;;0.97;55.13;101783.32;116915;1188;23544;-80
2021/11/17 06:19:51;;;;;;;;;;;;;;;1.04;55.01;101785.07;117009;1190;21851;-79
2021/11/17 06:22:20;;;;;;;;;;;;;;;1.09;54.90;101791.85;116991;1191;21849;-79
2021/11/17 06:24:48;;;;;;;;;;;;;;;1.14;54.75;101787.95;116982;1191;21851;-80
2021/11/17 06:27:17;;;;;;;;;;;;;;;1.18;54.72;101790.40;116927;1190;21861;-79
2021/11/17 06:29:46;;;;;;;;;;;;;;;1.24;54.74;101786.48;117207;1184;21844;-80
2021/11/17 06:32:14;;;;;;;;;;;;;;;1.26;54.88;101780.89;117132;1189;21872;-80
2021/11/17 06:34:46;;;;;;;;;;;;;;;1.29;54.77;101780.00;117475;1178;23446;-80
2021/11/17 06:37:15;;;;;;;;;;;;;;;1.34;54.66;101779.55;117459;1186;21842;-81
2021/11/17 06:39:44;;;;;;;;;;;;;;;1.40;54.96;101780.70;117531;1185;22912;-80
2021/11/17 06:42:13;;;;;;;;;;;;;;;1.45;55.09;101775.26;117480;1185;21842;-80
2021/11/17 06:44:41;;;;;;;;;;;;;;;1.48;55.01;101770.72;117441;1179;21829;-80
2021/11/17 06:47:09;;;;;;;;;;;;;;;1.51;54.97;101771.38;117482;1186;21839;-80
2021/11/17 06:49:37;;;;;;;;;;;;;;;1.57;55.11;101771.28;117439;1186;21844;-81
2021/11/17 06:52:05;;;;;;;;;;;;;;;1.64;55.21;101773.52;117461;1182;21891;-80
2021/11/17 06:54:33;;;;;;;;;;;;;;;1.71;55.29;101771.77;117466;1183;22902;-81
2021/11/17 06:57:01;;;;;;;;;;;;;;;1.75;55.35;101771.11;117475;1186;21854;-80
2021/11/17 06:59:29;;;;;;;;;;;;;;;1.81;55.05;101770.13;117604;1185;23521;-82
2021/11/17 07:02:04;;;;;;;;;;;;;;;1.88;55.09;101768.06;117562;1185;21854;-82
2021/11/17 07:04:33;;;;;;;;;;;;;;;1.99;55.30;101757.11;117627;1182;22932;-81
2021/11/17 07:07:01;;;;;;;;;;;;;;;2.09;55.24;101755.98;117565;1182;21841;-81
2021/11/17 07:09:29;;;;;;;;;;;;;;;2.22;55.27;101748.61;117661;1179;22317;-79
2021/11/17 07:11:57;;;;;;;;;;;;;;;2.39;55.46;101746.05;117576;1185;21861;-80
2021/11/17 07:14:26;;;;;;;;;;;;;;;2.58;55.55;101746.16;117596;1182;22152;-79
2021/11/17 07:16:53;;;;;;;;;;;;;;;2.72;55.56;101751.60;117576;1185;23419;-79
2021/11/17 07:19:24;;;;;;;;;;;;;;;2.85;55.55;101758.02;117497;1185;23556;-79
2021/11/17 07:21:54;;;;;;;;;;;;;;;3.00;55.67;101749.26;117429;1186;23535;-78
2021/11/17 07:24:22;;;;;;;;;;;;;;;3.14;55.61;101747.56;117448;1186;21894;-79
2021/11/17 07:26:49;;;;;;;;;;;;;;;3.27;55.66;101743.41;117477;1186;21913;-79
2021/11/17 07:29:17;;;;;;;;;;;;;;;3.37;55.67;101735.48;117582;1186;21892;-78
2021/11/17 07:31:46;;;;;;;;;;;;;;;3.50;55.68;101734.73;117471;1182;23544;-79
2021/11/17 07:34:14;;;;;;;;;;;;;;;3.60;55.69;101733.39;117457;1186;21842;-78
2021/11/17 07:36:42;;;;;;;;;;;;;;;3.67;55.71;101739.05;117582;1186;21860;-78
2021/11/17 07:39:14;;;;;;;;;;;;;;;3.82;55.95;101742.34;117740;1182;23636;-78
2021/11/17 07:41:43;;;;;;;;;;;;;;;3.94;55.94;101739.54;117422;1185;22240;-78
2021/11/17 07:44:16;;;;;;;;;;;;;;;4.10;55.90;101732.96;117276;1190;21900;-79
2021/11/17 07:46:44;;;;;;;;;;;;;;;4.24;55.86;101730.33;117299;1188;21850;-78
2021/11/17 07:49:12;;;;;;;;;;;;;;;4.39;56.12;101729.98;117441;1182;22114;-79
2021/11/17 07:51:40;;;;;;;;;;;;;;;4.54;56.10;101730.34;117415;1186;21855;-78
2021/11/17 07:54:09;;;;;;;;;;;;;;;4.69;56.14;101725.59;117446;1185;23541;-78
2021/11/17 07:56:37;;;;;;;;;;;;;;;4.84;55.98;101721.91;117501;1179;21896;-78
2021/11/17 07:59:05;;;;;;;;;;;;;;;4.99;56.33;101720.34;117444;1179;23551;-78
2021/11/17 08:01:34;;;;;;;;;;;;;;;5.17;56.33;101724.35;117555;1185;22303;-78
2021/11/17 08:04:02;;;;;;;;;;;;;;;5.36;56.15;101731.23;117315;1186;23220;-77
2021/11/17 08:06:30;;;;;;;;;;;;;;;5.54;56.50;101730.71;117358;1187;21839;-79
2021/11/17 08:08:58;;;;;;;;;;;;;;;5.71;56.56;101729.30;117579;1185;21847;-79
2021/11/17 08:11:35;;;;;;;;;;;;;;;5.90;56.56;101724.11;117545;1185;23518;-78
2021/11/17 08:14:03;;;;;;;;;;;;;;;6.10;56.60;101717.34;117561;1184;22294;-79
2021/11/17 08:16:31;;;;;;;;;;;;;;;6.30;56.37;101715.62;117553;1182;22070;-78
2021/11/17 08:18:59;;;;;;;;;;;;;;;6.47;56.24;101717.13;117450;1184;22004;-80
2021/11/17 08:21:27;;;;;;;;;;;;;;;6.62;56.35;101708.44;117536;1184;23443;-79
2021/11/17 08:23:55;;;;;;;;;;;;;;;6.77;56.32;101703.76;117534;1184;21839;-79
2021/11/17 08:26:22;;;;;;;;;;;;;;;6.91;56.42;101706.52;117444;1186;23915;-79
2021/11/17 08:28:50;;;;;;;;;;;;;;;7.02;56.46;101706.61;117444;1179;21852;-79
2021/11/17 08:31:19;;;;;;;;;;;;;;;7.16;56.54;101702.91;117411;1186;24445;-80
2021/11/17 08:33:47;;;;;;;;;;;;;;;7.31;56.64;101703.42;117402;1186;21832;-78
2021/11/17 08:36:15;;;;;;;;;;;;;;;7.45;56.66;101701.30;117349;1187;22346;-78
2021/11/17 08:38:43;;;;;;;;;;;;;;;7.61;56.48;101701.81;117506;1185;21889;-81
2021/11/17 08:41:11;;;;;;;;;;;;;;;7.75;56.52;101695.64;117539;1182;21841;-80
2021/11/17 08:43:41;;;;;;;;;;;;;;;7.93;56.45;101700.53;117614;1185;22299;-80
2021/11/17 08:46:09;;;;;;;;;;;;;;;8.10;56.64;101703.31;117345;1185;21851;-80
2021/11/17 08:48:37;;;;;;;;;;;;;;;8.29;56.85;101701.04;117583;1185;21842;-80
2021/11/17 08:51:08;;;;;;;;;;;;;;;8.47;56.78;101692.09;117575;1185;23518;-81
2021/11/17 08:53:39;;;;;;;;;;;;;;;8.64;56.63;101694.34;117616;1185;23535;-81
2021/11/17 08:56:07;;;;;;;;;;;;;;;8.83;56.68;101689.39;117318;1186;21842;-81
2021/11/17 08:58:35;;;;;;;;;;;;;;;9.03;56.61;101691.45;117553;1185;21840;-81
2021/11/17 09:01:03;;;;;;;;;;;;;;;9.22;56.69;101692.42;117307;1187;23424;-81
2021/11/17 09:03:32;;;;;;;;;;;;;;;9.38;56.75;101692.30;117521;1179;23420;-81
2021/11/17 09:06:00;;;;;;;;;;;;;;;9.53;56.74;101691.80;117287;1188;21879;-81
2021/11/17 09:08:30;;;;;;;;;;;;;;;9.67;56.75;101686.19;117319;1185;21835;-81
2021/11/17 09:10:59;;;;;;;;;;;;;;;9.83;56.79;101684.97;117539;1185;21842;-81
2021/11/17 09:13:36;;;;;;;;;;;;;;;9.95;56.83;101673.36;117605;1182;23521;-81
2021/11/17 09:16:04;;;;;;;;;;;;;;;10.10;56.79;101675.10;117532;1185;22356;-81
2021/11/17 09:18:33;;;;;;;;;;;;;;;10.27;57.00;101667.55;117394;1183;22955;-81
2021/11/17 09:21:02;;;;;;;;;;;;;;;10.42;56.92;101668.41;117417;1185;21842;-81
2021/11/17 09:23:31;;;;;;;;;;;;;;;10.58;56.94;101663.48;117459;1185;22923;-80
2021/11/17 09:25:59;;;;;;;;;;;;;;;10.71;56.89;101663.39;117438;1183;21841;-81
2021/11/17 09:28:28;;;;;;;;;;;;;;;10.88;56.75;101662.29;117450;1182;23616;-80
2021/11/17 09:30:56;;;;;;;;;;;;;;;11.00;56.74;101659.75;117312;1185;22912;-80
2021/11/17 09:33:24;;;;;;;;;;;;;;;11.10;56.60;101657.34;117622;1185;21905;-81
2021/11/17 09:35:52;;;;;;;;;;;;;;;11.22;56.67;101655.66;117370;1185;21848;-80
2021/11/17 09:38:21;;;;;;;;;;;;;;;11.31;56.61;101651.31;117424;1185;22899;-81
2021/11/17 09:40:49;;;;;;;;;;;;;;;11.43;56.69;101646.27;117415;1186;23062;-80
2021/11/17 09:43:18;;;;;;;;;;;;;;;11.53;56.91;101648.94;117307;1187;21854;-80
2021/11/17 09:45:46;;;;;;;;;;;;;;;11.68;56.84;101639.16;117408;1185;22632;-80
2021/11/17 09:48:16;;;;;;;;;;;;;;;11.85;56.74;101642.20;117376;1186;23901;-80
2021/11/17 09:50:56;;;;;;;;;;;;;;;11.97;56.81;101636.25;117395;1182;21867;-80
2021/11/17 09:53:40;;;;;;;;;;;;;;;12.08;56.75;101631.38;117488;1186;21842;-81
2021/11/17 09:56:11;;;;;;;;;;;;;;;12.22;56.73;101629.98;117413;1179;21903;-81
2021/11/17 09:58:40;;;;;;;;;;;;;;;12.34;56.66;101627.17;117358;1185;22804;-82
2021/11/17 10:01:10;;;;;;;;;;;;;;;12.50;56.73;101623.83;117315;1187;21876;-82
2021/11/17 10:03:41;;;;;;;;;;;;;;;12.64;56.69;101619.93;117570;1179;23444;-82
2021/11/17 10:14:29;;;;;;;;;;;;;;;13.17;56.58;101613.66;117559;1185;22830;-81
2021/11/17 10:16:57;;;;;;;;;;;;;;;13.37;56.15;101610.06;117559;1185;21845;-80
2021/11/17 10:19:29;;;;;;;;;;;;;;;13.63;55.90;101607.83;117537;1182;23538;-80
2021/11/17 10:22:00;;;;;;;;;;;;;;;14.19;54.89;101610.48;117311;1183;22892;-81
2021/11/17 10:24:40;;;;;;;;;;;;;;;14.06;55.44;101603.52;117498;1182;23617;-81
2021/11/17 10:27:09;;;;;;;;;;;;;;;14.02;55.71;101603.02;117545;1185;21913;-81
2021/11/17 10:29:41;;;;;;;;;;;;;;;14.57;54.80;101594.10;117393;1182;22642;-81
2021/11/17 10:32:15;;;;;;;;;;;;;;;14.77;54.72;101595.17;117565;1185;21847;-81
2021/11/17 10:34:51;;;;;;;;;;;;;;;15.10;54.30;101596.40;117546;1182;21891;-81
2021/11/17 10:37:25;;;;;;;;;;;;;;;15.10;54.46;101592.69;117500;1186;23544;-81
2021/11/17 10:39:53;;;;;;;;;;;;;;;15.28;54.31;101589.10;117463;1183;22875;-82
2021/11/17 10:42:22;;;;;;;;;;;;;;;14.74;55.36;101592.00;117555;1179;23417;-81
2021/11/17 10:44:50;;;;;;;;;;;;;;;14.54;55.91;101595.37;117509;1183;23013;-82
2021/11/17 10:47:18;;;;;;;;;;;;;;;14.51;55.92;101593.63;117410;1186;21844;-81
2021/11/17 10:49:51;;;;;;;;;;;;;;;14.40;55.66;101590.54;117508;1185;21850;-81
2021/11/17 10:52:33;;;;;;;;;;;;;;;14.37;55.93;101591.98;117595;1182;23547;-81
2021/11/17 10:55:02;;;;;;;;;;;;;;;14.41;55.97;101588.77;117412;1182;21888;-81
2021/11/17 10:57:32;;;;;;;;;;;;;;;14.45;56.10;101587.86;117336;1185;21857;-81
2021/11/17 11:00:00;;;;;;;;;;;;;;;14.49;55.92;101585.70;117549;1185;21845;-81
2021/11/17 11:02:29;;;;;;;;;;;;;;;14.48;55.80;101574.75;117558;1182;21855;-82
2021/11/17 11:04:58;;;;;;;;;;;;;;;14.52;55.92;101569.42;117619;1182;21863;-82
2021/11/17 11:07:29;;;;;;;;;;;;;;;14.62;55.89;101565.08;117435;1179;21857;-82
2021/11/17 11:09:59;;;;;;;;;;;;;;;14.70;56.00;101561.31;117617;1179;22346;-82
2021/11/17 11:12:28;;;;;;;;;;;;;;;14.78;56.02;101561.23;117280;1188;21879;-81
2021/11/17 11:15:04;;;;;;;;;;;;;;;14.85;55.88;101559.40;117533;1185;22212;-82
2021/11/17 11:17:35;;;;;;;;;;;;;;;14.93;55.99;101556.66;117445;1186;21842;-81
2021/11/17 11:20:15;;;;;;;;;;;;;;;15.00;56.05;101557.63;117294;1188;23484;-81
2021/11/17 11:23:02;;;;;;;;;;;;;;;15.13;55.98;101558.02;117272;1185;23516;-81
2021/11/17 11:25:49;;;;;;;;;;;;;;;15.23;55.82;101557.52;117423;1182;21875;-82
2021/11/17 11:28:20;;;;;;;;;;;;;;;15.25;55.63;101555.56;117377;1188;23447;-81
2021/11/17 11:30:49;;;;;;;;;;;;;;;15.27;55.69;101555.71;117529;1182;22733;-82
2021/11/17 11:33:21;;;;;;;;;;;;;;;15.33;55.72;101550.33;117538;1185;21892;-83
2021/11/17 11:36:08;;;;;;;;;;;;;;;15.39;55.69;101540.86;117422;1186;23554;-82
2021/11/17 11:38:37;;;;;;;;;;;;;;;15.44;55.62;101540.11;117438;1179;23414;-81
2021/11/17 11:41:08;;;;;;;;;;;;;;;15.46;55.56;101545.02;117482;1186;23532;-81
2021/11/17 11:43:37;;;;;;;;;;;;;;;15.43;55.44;101544.71;117548;1183;23524;-82
2021/11/17 11:46:24;;;;;;;;;;;;;;;15.41;55.53;101547.39;117428;1186;21857;-82
2021/11/17 11:48:54;;;;;;;;;;;;;;;15.44;55.48;101540.45;117449;1186;21851;-82
2021/11/17 11:51:22;;;;;;;;;;;;;;;15.49;55.48;101535.60;117426;1186;21846;-81
2021/11/17 11:53:55;;;;;;;;;;;;;;;15.52;55.57;101536.09;117565;1182;22449;-82
2021/11/17 11:56:36;;;;;;;;;;;;;;;15.56;55.38;101525.77;117525;1183;22947;-81
2021/11/17 11:59:08;;;;;;;;;;;;;;;15.56;55.36;101524.72;117415;1182;22816;-82
2021/11/17 12:01:36;;;;;;;;;;;;;;;15.58;55.38;101523.98;117432;1185;21834;-82
2021/11/17 12:04:13;;;;;;;;;;;;;;;15.63;55.31;101524.27;117404;1186;21839;-81
2021/11/17 12:06:53;;;;;;;;;;;;;;;15.65;55.30;101519.28;117430;1178;21832;-82
2021/11/17 12:09:37;;;;;;;;;;;;;;;15.65;55.32;101515.74;117363;1185;22909;-81
2021/11/17 12:12:07;;;;;;;;;;;;;;;15.61;55.31;101512.60;117530;1185;22300;-81
2021/11/17 12:14:38;;;;;;;;;;;;;;;15.58;55.31;101507.35;117556;1179;21850;-81
2021/11/17 12:17:07;;;;;;;;;;;;;;;15.59;55.20;101508.92;117547;1185;23605;-81
2021/11/17 12:19:39;;;;;;;;;;;;;;;15.54;55.09;101510.23;117802;1182;23615;-82
2021/11/17 12:22:09;;;;;;;;;;;;;;;15.41;54.94;101503.36;117576;1185;21844;-81
2021/11/17 12:24:45;;;;;;;;;;;;;;;15.35;55.02;101499.20;117532;1185;21842;-82
2021/11/17 12:27:15;;;;;;;;;;;;;;;15.27;54.88;101502.65;117518;1182;23538;-83
2021/11/17 12:30:02;;;;;;;;;;;;;;;15.21;54.87;101507.52;117447;1186;23534;-83
2021/11/17 12:32:40;;;;;;;;;;;;;;;15.03;54.51;101509.52;117288;1188;23544;-82
2021/11/17 12:35:09;;;;;;;;;;;;;;;14.83;54.56;101511.54;117395;1186;21841;-82
2021/11/17 12:37:44;;;;;;;;;;;;;;;14.57;54.70;101511.80;117607;1185;23535;-83
2021/11/17 12:40:14;;;;;;;;;;;;;;;14.52;54.65;101506.55;117545;1185;21842;-83
2021/11/17 12:42:45;;;;;;;;;;;;;;;14.46;54.66;101506.44;117401;1186;23522;-83
2021/11/17 12:45:16;;;;;;;;;;;;;;;14.44;54.68;101506.46;117332;1183;22913;-83
2021/11/17 12:47:45;;;;;;;;;;;;;;;14.43;54.69;101502.40;117601;1185;23522;-83
2021/11/17 12:50:18;;;;;;;;;;;;;;;14.41;54.58;101499.60;117538;1185;22902;-83
2021/11/17 12:52:52;;;;;;;;;;;;;;;14.37;54.66;101497.16;117521;1185;21858;-83
2021/11/17 12:55:29;;;;;;;;;;;;;;;14.33;54.58;101500.05;117390;1186;21853;-83
2021/11/17 12:58:04;;;;;;;;;;;;;;;14.28;54.55;101505.20;117441;1182;21844;-83
2021/11/17 13:00:38;;;;;;;;;;;;;;;14.23;54.52;101505.08;117502;1185;21843;-82
2021/11/17 13:03:09;;;;;;;;;;;;;;;14.14;54.40;101502.35;117531;1182;23518;-83
2021/11/17 13:05:42;;;;;;;;;;;;;;;14.04;54.39;101502.79;117536;1182;22901;-82
2021/11/17 13:08:11;;;;;;;;;;;;;;;13.92;54.21;101497.40;117310;1188;21848;-82
2021/11/17 13:10:50;;;;;;;;;;;;;;;13.81;54.22;101500.49;117432;1186;23534;-82
2021/11/17 13:13:27;;;;;;;;;;;;;;;13.71;54.14;101494.75;117295;1190;21845;-81
2021/11/17 13:15:59;;;;;;;;;;;;;;;13.63;54.18;101491.29;117486;1185;23525;-81
2021/11/17 13:18:46;;;;;;;;;;;;;;;13.53;54.08;101492.58;117514;1179;23444;-82
2021/11/17 13:21:20;;;;;;;;;;;;;;;13.41;54.07;101487.19;117606;1185;22042;-81
2021/11/17 13:24:01;;;;;;;;;;;;;;;13.32;53.99;101488.63;117593;1183;23534;-81
2021/11/17 13:26:51;;;;;;;;;;;;;;;13.19;53.88;101492.23;117590;1183;23981;-82
2021/11/17 13:29:23;;;;;;;;;;;;;;;13.02;54.09;101498.13;117488;1182;22982;-82
2021/11/17 13:32:12;;;;;;;;;;;;;;;12.87;54.03;101496.24;117498;1182;22176;-82
2021/11/17 13:34:45;;;;;;;;;;;;;;;12.69;53.92;101492.61;117460;1185;22631;-82
2021/11/17 13:37:19;;;;;;;;;;;;;;;12.55;53.93;101492.14;117437;1185;23000;-82
2021/11/17 13:40:07;;;;;;;;;;;;;;;12.38;53.84;101494.81;117568;1185;21902;-81
2021/11/17 13:42:35;;;;;;;;;;;;;;;12.19;53.71;101490.44;117520;1185;21847;-80
2021/11/17 13:45:24;;;;;;;;;;;;;;;11.98;53.51;101485.33;117583;1185;22107;-80
2021/11/17 13:47:52;;;;;;;;;;;;;;;11.71;53.55;101481.45;117485;1185;23603;-80
2021/11/17 13:50:21;;;;;;;;;;;;;;;11.49;53.48;101489.68;117325;1186;23553;-80
2021/11/17 13:52:49;;;;;;;;;;;;;;;11.24;53.45;101485.24;117445;1183;23521;-80
2021/11/17 13:55:19;;;;;;;;;;;;;;;10.98;53.27;101491.83;117459;1182;21859;-82
2021/11/17 13:57:48;;;;;;;;;;;;;;;10.69;53.28;101494.52;117496;1179;23423;-81
2021/11/17 14:00:16;;;;;;;;;;;;;;;10.44;53.40;101500.85;117605;1185;23521;-80
2021/11/17 14:02:48;;;;;;;;;;;;;;;10.22;53.41;101505.07;117481;1188;23500;-80
2021/11/17 14:05:18;;;;;;;;;;;;;;;10.03;53.32;101502.98;117619;1185;23528;-81
2021/11/17 14:07:46;;;;;;;;;;;;;;;9.84;53.26;101503.72;117616;1185;21841;-81
2021/11/17 14:10:17;;;;;;;;;;;;;;;9.63;53.26;101507.02;117597;1182;22996;-82
2021/11/17 14:12:57;;;;;;;;;;;;;;;9.40;53.24;101505.91;117592;1179;23554;-81
2021/11/17 15:10:06;;;;;;;;;;;;;;;4.88;52.58;101522.54;117507;1185;21845;-82
2021/11/17 15:12:37;;;;;;;;;;;;;;;4.69;52.62;101528.43;117543;1185;21879;-80
2021/11/17 15:15:07;;;;;;;;;;;;;;;4.48;52.39;101534.73;117609;1185;21845;-80
2021/11/17 15:17:36;;;;;;;;;;;;;;;4.28;52.48;101534.64;117483;1178;21833;-79
2021/11/17 15:20:05;;;;;;;;;;;;;;;4.14;52.55;101534.54;117447;1186;23521;-79
2021/11/17 15:22:36;;;;;;;;;;;;;;;4.05;52.67;101535.63;117478;1182;23544;-79
2021/11/17 15:25:05;;;;;;;;;;;;;;;3.95;52.72;101535.48;117536;1185;22921;-79
2021/11/17 15:27:42;;;;;;;;;;;;;;;3.86;52.80;101538.11;117606;1183;21844;-81
2021/11/17 15:30:12;;;;;;;;;;;;;;;3.77;52.81;101536.44;117545;1182;23925;-80
2021/11/17 15:32:40;;;;;;;;;;;;;;;3.69;52.70;101536.51;117537;1185;22910;-81
2021/11/17 15:35:08;;;;;;;;;;;;;;;3.62;52.73;101539.58;117543;1185;21919;-82
2021/11/17 15:37:37;;;;;;;;;;;;;;;3.57;52.70;101542.52;117438;1182;22379;-81
2021/11/17 15:40:06;;;;;;;;;;;;;;;3.51;52.78;101544.58;117508;1185;21862;-81
2021/11/17 15:42:34;;;;;;;;;;;;;;;3.45;52.71;101543.14;117529;1185;21838;-80
2021/11/17 15:45:02;;;;;;;;;;;;;;;3.35;52.71;101538.61;117512;1185;21855;-81
2021/11/17 15:47:30;;;;;;;;;;;;;;;3.30;52.81;101538.26;117449;1182;23560;-80
2021/11/17 15:49:58;;;;;;;;;;;;;;;3.26;52.91;101539.54;117490;1184;21957;-81
2021/11/17 15:52:26;;;;;;;;;;;;;;;3.24;52.86;101538.77;117537;1185;21842;-80
2021/11/17 15:54:55;;;;;;;;;;;;;;;3.24;52.98;101535.14;117537;1185;21842;-81
2021/11/17 15:57:23;;;;;;;;;;;;;;;3.25;53.07;101536.56;117535;1184;21908;-81
2021/11/17 15:59:51;;;;;;;;;;;;;;;3.25;52.86;101534.96;117393;1186;21852;-81
2021/11/17 16:02:19;;;;;;;;;;;;;;;3.24;53.05;101533.91;117534;1185;22924;-81
2021/11/17 16:04:47;;;;;;;;;;;;;;;3.25;53.16;101532.20;117551;1185;21854;-81
2021/11/17 16:07:16;;;;;;;;;;;;;;;3.25;53.13;101535.14;117555;1182;22605;-81
2021/11/17 16:09:47;;;;;;;;;;;;;;;3.22;53.08;101531.40;117539;1179;23925;-81
2021/11/17 16:12:17;;;;;;;;;;;;;;;3.18;53.04;101529.33;117470;1182;21847;-81
2021/11/17 16:14:46;;;;;;;;;;;;;;;3.18;53.03;101530.04;117463;1186;22914;-81
2021/11/17 16:17:16;;;;;;;;;;;;;;;3.22;53.15;101534.86;117544;1182;23544;-81
2021/11/17 16:19:49;;;;;;;;;;;;;;;3.26;53.33;101536.57;117525;1185;21892;-82
2021/11/17 16:22:31;;;;;;;;;;;;;;;3.33;53.30;101528.82;117538;1186;22164;-81
2021/11/17 16:27:46;;;;;;;;;;;;;;;3.50;53.45;101533.27;117415;1185;22982;-81
2021/11/17 16:30:15;;;;;;;;;;;;;;;3.54;53.41;101533.41;117537;1184;21879;-82
2021/11/17 16:32:46;;;;;;;;;;;;;;;3.60;53.49;101532.89;117403;1186;23525;-81